createdAt,value
2022-09-28T00:00:11.743Z,8.56
2022-09-28T00:01:14.511Z,8.56
2022-09-28T00:02:18.037Z,8.56
2022-09-28T00:03:54.339Z,8.56
2022-09-28T00:04:57.442Z,8.56
2022-09-28T00:06:00.353Z,8.56
2022-09-28T00:07:35.134Z,8.56
2022-09-28T00:08:37.847Z,8.56
2022-09-28T00:09:40.526Z,8.56
2022-09-28T00:11:15.076Z,8.56
2022-09-28T00:12:18.250Z,8.56
2022-09-28T00:13:20.962Z,8.56
2022-09-28T00:14:55.457Z,8.56
2022-09-28T00:15:58.301Z,8.56
2022-09-28T00:17:01.550Z,8.56
2022-09-28T00:18:36.136Z,8.50
2022-09-28T00:19:39.040Z,8.50
2022-09-28T00:20:41.805Z,8.50
2022-09-28T00:22:16.359Z,8.50
2022-09-28T00:23:19.133Z,8.56
2022-09-28T00:24:26.644Z,8.56
2022-09-28T00:26:02.798Z,8.50
2022-09-28T00:27:05.446Z,8.44
2022-09-28T00:28:08.090Z,8.44
2022-09-28T00:29:42.720Z,8.44
2022-09-28T00:30:45.471Z,8.44
2022-09-28T00:31:48.633Z,8.44
2022-09-28T00:33:24.408Z,8.44
2022-09-28T00:34:27.311Z,8.44
2022-09-28T00:35:29.984Z,8.44
2022-09-28T00:37:04.509Z,8.44
2022-09-28T00:38:07.287Z,8.44
2022-09-28T00:39:10.168Z,8.38
2022-09-28T00:40:45.316Z,8.38
2022-09-28T00:41:48.252Z,8.38
2022-09-28T00:42:51.182Z,8.38
2022-09-28T00:44:25.702Z,8.38
2022-09-28T00:45:28.623Z,8.38
2022-09-28T00:46:31.887Z,8.38
2022-09-28T00:48:06.488Z,8.38
2022-09-28T00:49:09.187Z,8.38
2022-09-28T00:50:12.163Z,8.38
2022-09-28T00:51:46.748Z,8.38
2022-09-28T00:52:49.469Z,8.38
2022-09-28T00:53:52.171Z,8.38
2022-09-28T00:55:26.866Z,8.31
2022-09-28T00:56:29.608Z,8.31
2022-09-28T00:57:32.324Z,8.31
2022-09-28T00:59:06.790Z,8.31
2022-09-28T01:00:12.550Z,8.31
2022-09-28T01:01:15.729Z,8.25
2022-09-28T01:02:19.089Z,8.25
2022-09-28T01:03:54.077Z,8.25
2022-09-28T01:04:56.727Z,8.25
2022-09-28T01:05:59.471Z,8.19
2022-09-28T01:07:33.890Z,8.19
2022-09-28T01:08:36.756Z,8.13
2022-09-28T01:09:39.449Z,8.13
2022-09-28T01:11:13.859Z,8.13
2022-09-28T01:12:16.713Z,8.13
2022-09-28T01:13:19.428Z,8.13
2022-09-28T01:14:54.094Z,8.06
2022-09-28T01:15:57.293Z,8.13
2022-09-28T01:17:00.494Z,8.13
2022-09-28T01:18:34.962Z,8.13
2022-09-28T01:19:37.698Z,8.13
2022-09-28T01:20:40.538Z,8.13
2022-09-28T01:22:14.959Z,8.13
2022-09-28T01:23:17.659Z,8.13
2022-09-28T01:24:20.462Z,8.13
2022-09-28T01:25:55.191Z,8.13
2022-09-28T01:26:57.866Z,8.13
2022-09-28T01:28:00.479Z,8.13
2022-09-28T01:29:34.949Z,8.13
2022-09-28T01:30:37.729Z,8.13
2022-09-28T01:31:40.468Z,8.13
2022-09-28T01:33:15.294Z,8.06
2022-09-28T01:34:18.097Z,8.06
2022-09-28T01:35:20.871Z,8.06
2022-09-28T01:36:55.294Z,8.00
2022-09-28T01:37:58.129Z,8.00
2022-09-28T01:39:00.955Z,8.00
2022-09-28T01:40:35.926Z,7.94
2022-09-28T01:41:39.141Z,7.94
2022-09-28T01:42:41.908Z,7.94
2022-09-28T01:44:16.620Z,7.94
2022-09-28T01:45:19.360Z,7.94
2022-09-28T01:46:22.694Z,7.88
2022-09-28T01:47:57.708Z,7.88
2022-09-28T01:49:00.388Z,7.81
2022-09-28T01:50:03.344Z,7.81
2022-09-28T01:51:37.890Z,7.75
2022-09-28T01:52:40.639Z,7.75
2022-09-28T01:53:43.368Z,7.75
2022-09-28T01:55:17.843Z,7.69
2022-09-28T01:56:20.525Z,7.69
2022-09-28T01:57:23.434Z,7.69
2022-09-28T01:58:58.225Z,7.69
2022-09-28T02:00:01.359Z,7.63
2022-09-28T02:00:12.011Z,7.63
2022-09-28T02:01:15.003Z,7.63
2022-09-28T02:02:18.056Z,7.63
2022-09-28T02:03:52.857Z,7.63
2022-09-28T02:04:55.446Z,7.56
2022-09-28T02:05:58.334Z,7.56
2022-09-28T02:07:32.914Z,7.56
2022-09-28T02:08:35.604Z,7.56
2022-09-28T02:09:38.361Z,7.56
2022-09-28T02:11:12.735Z,7.56
2022-09-28T02:12:15.389Z,7.56
2022-09-28T02:13:18.029Z,7.56
2022-09-28T02:14:52.442Z,7.50
2022-09-28T02:15:55.142Z,7.50
2022-09-28T02:16:58.413Z,7.50
2022-09-28T02:18:32.978Z,7.50
2022-09-28T02:19:35.684Z,7.50
2022-09-28T02:20:38.378Z,7.50
2022-09-28T02:22:12.954Z,7.44
2022-09-28T02:23:15.702Z,7.44
2022-09-28T02:24:21.436Z,7.44
2022-09-28T02:25:56.359Z,7.50
2022-09-28T02:26:59.217Z,7.50
2022-09-28T02:28:02.090Z,7.50
2022-09-28T02:29:36.637Z,7.50
2022-09-28T02:30:39.433Z,7.44
2022-09-28T02:31:42.327Z,7.44
2022-09-28T02:33:17.128Z,7.44
2022-09-28T02:34:19.855Z,7.44
2022-09-28T02:35:22.586Z,7.44
2022-09-28T02:36:57.319Z,7.44
2022-09-28T02:38:00.007Z,7.44
2022-09-28T02:39:02.877Z,7.44
2022-09-28T02:40:37.396Z,7.44
2022-09-28T02:41:40.548Z,7.50
2022-09-28T02:42:43.290Z,7.50
2022-09-28T02:44:17.707Z,7.50
2022-09-28T02:45:20.425Z,7.50
2022-09-28T02:46:23.883Z,7.50
2022-09-28T02:47:58.516Z,7.50
2022-09-28T02:49:39.934Z,7.50
2022-09-28T02:50:42.638Z,7.50
2022-09-28T02:52:17.123Z,7.50
2022-09-28T02:53:19.798Z,7.56
2022-09-28T02:54:22.461Z,7.56
2022-09-28T02:55:57.131Z,7.56
2022-09-28T02:56:59.938Z,7.56
2022-09-28T02:58:02.661Z,7.56
2022-09-28T02:59:37.164Z,7.56
2022-09-28T03:00:12.816Z,7.56
2022-09-28T03:01:15.810Z,7.56
2022-09-28T03:02:19.078Z,7.56
2022-09-28T03:03:53.845Z,7.56
2022-09-28T03:04:56.489Z,7.56
2022-09-28T03:05:59.211Z,7.56
2022-09-28T03:07:33.781Z,7.63
2022-09-28T03:08:36.489Z,7.63
2022-09-28T03:09:39.233Z,7.63
2022-09-28T03:11:13.726Z,7.56
2022-09-28T03:12:16.378Z,7.56
2022-09-28T03:13:19.012Z,7.63
2022-09-28T03:14:53.469Z,7.63
2022-09-28T03:15:56.390Z,7.63
2022-09-28T03:16:59.536Z,7.63
2022-09-28T03:18:34.074Z,7.63
2022-09-28T03:19:36.714Z,7.63
2022-09-28T03:20:39.430Z,7.63
2022-09-28T03:22:13.870Z,7.63
2022-09-28T03:23:25.258Z,7.63
2022-09-28T03:24:28.422Z,7.63
2022-09-28T03:26:02.822Z,7.63
2022-09-28T03:27:05.552Z,7.63
2022-09-28T03:28:08.349Z,7.63
2022-09-28T03:29:42.858Z,7.63
2022-09-28T03:30:45.843Z,7.63
2022-09-28T03:31:49.251Z,7.63
2022-09-28T03:33:23.953Z,7.63
2022-09-28T03:34:26.722Z,7.63
2022-09-28T03:35:29.363Z,7.63
2022-09-28T03:37:03.826Z,7.63
2022-09-28T03:38:06.563Z,7.69
2022-09-28T03:39:09.282Z,7.63
2022-09-28T03:40:44.163Z,7.63
2022-09-28T03:41:47.127Z,7.63
2022-09-28T03:42:49.922Z,7.63
2022-09-28T03:44:24.504Z,7.63
2022-09-28T03:45:27.141Z,7.63
2022-09-28T03:46:30.442Z,7.63
2022-09-28T03:48:04.814Z,7.63
2022-09-28T03:49:17.675Z,7.63
2022-09-28T03:50:20.417Z,7.63
2022-09-28T03:51:54.892Z,7.69
2022-09-28T03:52:57.498Z,7.69
2022-09-28T03:54:00.240Z,7.69
2022-09-28T03:55:35.706Z,7.69
2022-09-28T03:56:38.682Z,7.69
2022-09-28T03:57:41.366Z,7.69
2022-09-28T03:59:16.271Z,7.69
2022-09-28T04:00:12.149Z,7.69
2022-09-28T04:01:17.259Z,7.69
2022-09-28T04:02:21.348Z,7.69
2022-09-28T04:03:56.385Z,7.75
2022-09-28T04:04:59.145Z,7.75
2022-09-28T04:05:41.438Z,7.75
2022-09-28T04:06:44.642Z,7.75
2022-09-28T04:07:47.940Z,7.69
2022-09-28T04:09:22.919Z,7.75
2022-09-28T04:10:26.093Z,7.69
2022-09-28T04:11:38.483Z,7.69
2022-09-28T04:13:34.005Z,7.69
2022-09-28T04:14:37.220Z,7.69
2022-09-28T04:15:40.364Z,7.75
2022-09-28T04:17:16.151Z,7.75
2022-09-28T04:18:25.572Z,7.69
2022-09-28T04:19:28.395Z,7.69
2022-09-28T04:21:03.588Z,7.69
2022-09-28T04:22:06.650Z,7.69
2022-09-28T04:23:09.698Z,7.69
2022-09-28T04:24:44.580Z,7.69
2022-09-28T04:25:47.689Z,7.69
2022-09-28T04:26:50.656Z,7.69
2022-09-28T04:28:25.389Z,7.69
2022-09-28T04:29:28.453Z,7.69
2022-09-28T04:30:31.222Z,7.69
2022-09-28T04:32:06.579Z,7.69
2022-09-28T04:33:09.503Z,7.69
2022-09-28T04:34:12.536Z,7.69
2022-09-28T04:35:57.057Z,7.69
2022-09-28T04:37:00.182Z,7.69
2022-09-28T04:38:03.358Z,7.69
2022-09-28T04:40:06.599Z,7.69
2022-09-28T04:41:10.172Z,7.69
2022-09-28T04:42:13.211Z,7.69
2022-09-28T04:43:48.189Z,7.69
2022-09-28T04:44:51.283Z,7.69
2022-09-28T04:45:54.190Z,7.69
2022-09-28T04:47:29.673Z,7.69
2022-09-28T04:48:32.646Z,7.69
2022-09-28T04:49:35.797Z,7.69
2022-09-28T04:51:10.970Z,7.69
2022-09-28T04:52:18.214Z,7.69
2022-09-28T04:53:21.563Z,7.69
2022-09-28T04:54:56.824Z,7.69
2022-09-28T04:55:59.852Z,7.69
2022-09-28T04:57:02.806Z,7.63
2022-09-28T04:58:37.513Z,7.69
2022-09-28T04:59:44.728Z,7.69
2022-09-28T05:00:12.518Z,7.69
2022-09-28T05:01:15.873Z,7.69
2022-09-28T05:02:19.582Z,7.69
2022-09-28T05:03:54.985Z,7.63
2022-09-28T05:05:01.226Z,7.63
2022-09-28T05:06:04.079Z,7.63
2022-09-28T05:07:39.065Z,7.63
2022-09-28T05:08:42.060Z,7.63
2022-09-28T05:09:45.374Z,7.63
2022-09-28T05:11:20.181Z,7.63
2022-09-28T05:12:23.372Z,7.63
2022-09-28T05:13:26.208Z,7.63
2022-09-28T05:15:01.278Z,7.63
2022-09-28T05:16:05.587Z,7.63
2022-09-28T05:17:09.435Z,7.63
2022-09-28T05:18:44.414Z,7.63
2022-09-28T05:19:47.447Z,7.56
2022-09-28T05:20:50.386Z,7.63
2022-09-28T05:22:25.649Z,7.56
2022-09-28T05:23:28.539Z,7.63
2022-09-28T05:24:32.155Z,7.56
2022-09-28T05:26:07.404Z,7.56
2022-09-28T05:27:10.579Z,7.56
2022-09-28T05:28:13.764Z,7.56
2022-09-28T05:29:49.037Z,7.56
2022-09-28T05:30:52.133Z,7.56
2022-09-28T05:31:55.801Z,7.56
2022-09-28T05:33:31.308Z,7.50
2022-09-28T05:34:34.382Z,7.50
2022-09-28T05:35:37.378Z,7.50
2022-09-28T05:37:19.938Z,7.50
2022-09-28T05:38:23.003Z,7.50
2022-09-28T05:39:26.007Z,7.50
2022-09-28T05:41:05.727Z,7.44
2022-09-28T05:42:09.684Z,7.44
2022-09-28T05:43:12.748Z,7.44
2022-09-28T05:44:47.773Z,7.38
2022-09-28T05:45:55.292Z,7.38
2022-09-28T05:46:59.354Z,7.38
2022-09-28T05:48:34.302Z,7.31
2022-09-28T05:49:37.254Z,7.31
2022-09-28T05:50:40.183Z,7.31
2022-09-28T05:52:15.229Z,7.31
2022-09-28T05:53:18.169Z,7.25
2022-09-28T05:54:21.451Z,7.25
2022-09-28T05:55:56.264Z,7.25
2022-09-28T05:56:59.345Z,7.25
2022-09-28T05:58:02.691Z,7.25
2022-09-28T05:59:38.010Z,7.25
2022-09-28T06:00:12.047Z,7.25
2022-09-28T06:01:15.276Z,7.25
2022-09-28T06:02:19.294Z,7.25
2022-09-28T06:03:55.888Z,7.25
2022-09-28T06:04:59.603Z,7.25
2022-09-28T06:06:02.582Z,7.19
2022-09-28T06:07:37.611Z,7.25
2022-09-28T06:08:40.773Z,7.19
2022-09-28T06:09:43.872Z,7.19
2022-09-28T06:11:18.667Z,7.19
2022-09-28T06:12:21.783Z,7.19
2022-09-28T06:13:24.869Z,7.19
2022-09-28T06:14:59.763Z,7.19
2022-09-28T06:16:02.659Z,7.19
2022-09-28T06:17:06.289Z,7.19
2022-09-28T06:18:41.640Z,7.19
2022-09-28T06:19:44.706Z,7.19
2022-09-28T06:20:47.661Z,7.19
2022-09-28T06:22:22.397Z,7.19
2022-09-28T06:23:25.757Z,7.19
2022-09-28T06:24:35.139Z,7.19
2022-09-28T06:26:10.420Z,7.19
2022-09-28T06:27:13.568Z,7.19
2022-09-28T06:28:16.478Z,7.19
2022-09-28T06:29:55.118Z,7.19
2022-09-28T06:30:58.263Z,7.25
2022-09-28T06:32:02.057Z,7.25
2022-09-28T06:33:37.118Z,7.25
2022-09-28T06:34:40.339Z,7.25
2022-09-28T06:35:48.267Z,7.25
2022-09-28T06:37:23.450Z,7.25
2022-09-28T06:38:26.522Z,7.25
2022-09-28T06:39:29.592Z,7.25
2022-09-28T06:41:05.066Z,7.25
2022-09-28T06:42:07.960Z,7.25
2022-09-28T06:43:11.024Z,7.25
2022-09-28T06:44:52.470Z,7.25
2022-09-28T06:45:55.453Z,7.25
2022-09-28T06:46:59.211Z,7.25
2022-09-28T06:48:34.185Z,7.25
2022-09-28T06:49:37.435Z,7.25
2022-09-28T06:50:40.718Z,7.25
2022-09-28T06:52:15.766Z,7.25
2022-09-28T06:53:18.630Z,7.25
2022-09-28T06:54:21.703Z,7.25
2022-09-28T06:55:56.813Z,7.25
2022-09-28T06:57:05.554Z,7.25
2022-09-28T06:58:08.647Z,7.25
2022-09-28T06:59:44.024Z,7.31
2022-09-28T07:00:12.537Z,7.31
2022-09-28T07:01:15.741Z,7.31
2022-09-28T07:02:19.590Z,7.31
2022-09-28T07:03:55.868Z,7.31
2022-09-28T07:04:59.221Z,7.31
2022-09-28T07:06:02.569Z,7.31
2022-09-28T07:07:37.377Z,7.31
2022-09-28T07:08:40.296Z,7.31
2022-09-28T07:10:33.971Z,7.31
2022-09-28T07:12:08.847Z,7.25
2022-09-28T07:13:28.297Z,7.25
2022-09-28T07:15:09.242Z,7.25
2022-09-28T07:17:05.203Z,7.25
2022-09-28T07:18:29.876Z,7.25
2022-09-28T07:19:33.144Z,7.25
2022-09-28T07:21:35.992Z,7.25
2022-09-28T07:23:19.415Z,7.25
2022-09-28T07:24:36.713Z,7.31
2022-09-28T07:26:11.907Z,7.31
2022-09-28T07:27:24.400Z,7.38
2022-09-28T07:28:30.019Z,7.38
2022-09-28T07:30:04.926Z,7.44
2022-09-28T07:31:08.845Z,7.44
2022-09-28T07:32:11.965Z,7.50
2022-09-28T07:33:47.226Z,7.56
2022-09-28T07:34:50.299Z,7.56
2022-09-28T07:35:56.747Z,7.63
2022-09-28T07:37:31.826Z,7.69
2022-09-28T07:38:34.923Z,7.69
2022-09-28T07:39:37.787Z,7.69
2022-09-28T07:41:13.021Z,7.69
2022-09-28T07:42:16.234Z,7.75
2022-09-28T07:43:19.326Z,7.75
2022-09-28T07:44:54.485Z,7.81
2022-09-28T07:45:57.584Z,7.81
2022-09-28T07:47:01.421Z,7.81
2022-09-28T07:48:42.065Z,7.88
2022-09-28T07:49:52.130Z,7.88
2022-09-28T07:50:55.202Z,7.94
2022-09-28T07:52:30.062Z,8.00
2022-09-28T07:53:33.139Z,8.06
2022-09-28T07:54:36.163Z,8.06
2022-09-28T07:56:15.773Z,8.13
2022-09-28T07:57:18.944Z,8.19
2022-09-28T07:58:22.126Z,8.25
2022-09-28T07:59:57.175Z,8.31
2022-09-28T08:00:12.420Z,8.25
2022-09-28T08:01:20.085Z,8.31
2022-09-28T08:02:23.490Z,8.31
2022-09-28T08:03:58.886Z,8.38
2022-09-28T08:05:01.897Z,8.38
2022-09-28T08:06:04.850Z,8.44
2022-09-28T08:07:40.347Z,8.50
2022-09-28T08:08:43.570Z,8.56
2022-09-28T08:09:46.805Z,8.63
2022-09-28T08:11:27.349Z,8.75
2022-09-28T08:12:30.409Z,8.81
2022-09-28T08:13:37.731Z,9.00
2022-09-28T08:15:12.648Z,9.06
2022-09-28T08:16:16.044Z,9.13
2022-09-28T08:17:22.436Z,9.19
2022-09-28T08:18:57.241Z,9.25
2022-09-28T08:20:00.370Z,9.31
2022-09-28T08:21:03.505Z,9.38
2022-09-28T08:22:38.483Z,9.50
2022-09-28T08:23:41.672Z,9.63
2022-09-28T08:24:45.111Z,9.69
2022-09-28T08:26:20.582Z,9.81
2022-09-28T08:27:23.595Z,9.88
2022-09-28T08:28:26.573Z,9.94
2022-09-28T08:30:01.405Z,10.00
2022-09-28T08:31:04.944Z,10.06
2022-09-28T08:32:08.285Z,10.13
2022-09-28T08:33:43.061Z,10.31
2022-09-28T08:34:46.176Z,10.38
2022-09-28T08:35:49.201Z,10.44
2022-09-28T08:37:23.861Z,10.50
2022-09-28T08:38:33.808Z,10.50
2022-09-28T08:39:36.810Z,10.56
2022-09-28T08:41:11.952Z,10.63
2022-09-28T08:42:15.084Z,10.63
2022-09-28T08:43:18.346Z,10.69
2022-09-28T08:44:53.888Z,10.69
2022-09-28T08:45:58.333Z,10.81
2022-09-28T08:47:07.178Z,10.88
2022-09-28T08:48:43.785Z,11.00
2022-09-28T08:50:19.051Z,11.06
2022-09-28T08:51:21.937Z,11.13
2022-09-28T08:52:56.793Z,11.19
2022-09-28T08:53:59.771Z,11.19
2022-09-28T08:55:08.729Z,11.25
2022-09-28T08:56:43.712Z,11.38
2022-09-28T08:57:46.818Z,11.38
2022-09-28T08:58:49.728Z,11.44
2022-09-28T09:00:11.978Z,11.50
2022-09-28T09:01:15.042Z,11.56
2022-09-28T09:02:18.707Z,11.63
2022-09-28T09:03:54.227Z,11.81
2022-09-28T09:04:57.641Z,11.94
2022-09-28T09:06:01.127Z,12.00
2022-09-28T09:07:42.188Z,12.13
2022-09-28T09:08:45.266Z,12.13
2022-09-28T09:09:48.268Z,12.19
2022-09-28T09:11:23.457Z,12.31
2022-09-28T09:12:26.655Z,12.38
2022-09-28T09:13:29.950Z,12.44
2022-09-28T09:15:04.922Z,12.56
2022-09-28T09:16:07.889Z,12.63
2022-09-28T09:17:11.726Z,12.63
2022-09-28T09:18:49.420Z,12.75
2022-09-28T09:19:52.543Z,12.81
2022-09-28T09:20:55.595Z,12.88
2022-09-28T09:22:30.972Z,12.94
2022-09-28T09:23:34.355Z,12.94
2022-09-28T09:24:37.292Z,12.88
2022-09-28T09:26:21.639Z,12.81
2022-09-28T09:27:25.530Z,12.69
2022-09-28T09:28:28.399Z,12.63
2022-09-28T09:30:03.458Z,12.63
2022-09-28T09:31:13.613Z,12.56
2022-09-28T09:32:20.365Z,12.56
2022-09-28T09:33:55.210Z,12.50
2022-09-28T09:34:58.336Z,12.56
2022-09-28T09:36:06.648Z,12.63
2022-09-28T09:37:41.301Z,12.88
2022-09-28T09:38:50.202Z,12.94
2022-09-28T09:39:53.409Z,13.06
2022-09-28T09:41:29.117Z,13.19
2022-09-28T09:42:32.119Z,13.31
2022-09-28T09:43:35.138Z,13.38
2022-09-28T09:45:10.389Z,13.44
2022-09-28T09:46:13.768Z,13.56
2022-09-28T09:47:17.034Z,13.56
2022-09-28T09:48:51.898Z,13.56
2022-09-28T09:49:54.996Z,13.56
2022-09-28T09:51:04.461Z,13.63
2022-09-28T09:52:42.311Z,13.81
2022-09-28T09:53:47.326Z,13.81
2022-09-28T09:54:50.455Z,13.75
2022-09-28T09:56:25.502Z,13.75
2022-09-28T09:57:28.537Z,13.81
2022-09-28T09:58:31.772Z,13.81
2022-09-28T10:00:12.657Z,13.88
2022-09-28T10:01:15.787Z,13.94
2022-09-28T10:02:19.259Z,14.06
2022-09-28T10:03:54.578Z,14.06
2022-09-28T10:04:57.610Z,14.00
2022-09-28T10:06:00.659Z,14.00
2022-09-28T10:07:35.853Z,14.06
2022-09-28T10:08:40.989Z,14.06
2022-09-28T10:09:43.857Z,14.06
2022-09-28T10:11:18.951Z,13.94
2022-09-28T10:12:22.067Z,14.00
2022-09-28T10:13:25.309Z,14.06
2022-09-28T10:15:00.113Z,14.13
2022-09-28T10:16:03.129Z,14.19
2022-09-28T10:17:06.386Z,14.25
2022-09-28T10:18:41.441Z,14.38
2022-09-28T10:19:44.539Z,14.38
2022-09-28T10:20:47.487Z,14.44
2022-09-28T10:22:22.823Z,14.44
2022-09-28T10:23:25.878Z,14.50
2022-09-28T10:24:29.185Z,14.50
2022-09-28T10:26:04.409Z,14.63
2022-09-28T10:27:11.254Z,14.63
2022-09-28T10:28:14.465Z,14.63
2022-09-28T10:29:49.714Z,14.69
2022-09-28T10:30:53.241Z,14.75
2022-09-28T10:31:56.912Z,14.88
2022-09-28T10:33:31.665Z,14.94
2022-09-28T10:34:34.646Z,14.88
2022-09-28T10:35:42.945Z,14.69
2022-09-28T10:37:18.094Z,14.56
2022-09-28T10:38:20.922Z,14.56
2022-09-28T10:39:23.900Z,14.44
2022-09-28T10:40:59.464Z,14.31
2022-09-28T10:42:02.747Z,14.25
2022-09-28T10:43:05.869Z,14.25
2022-09-28T10:44:44.291Z,14.19
2022-09-28T10:45:47.279Z,14.25
2022-09-28T10:46:51.086Z,14.25
2022-09-28T10:48:26.256Z,14.19
2022-09-28T10:49:29.296Z,14.25
2022-09-28T10:50:38.687Z,14.13
2022-09-28T10:52:13.661Z,14.00
2022-09-28T10:53:16.827Z,13.88
2022-09-28T10:54:20.203Z,13.81
2022-09-28T10:55:55.149Z,13.81
2022-09-28T10:56:58.285Z,13.88
2022-09-28T10:58:05.454Z,14.00
2022-09-28T10:59:40.558Z,14.06
2022-09-28T11:00:12.649Z,14.19
2022-09-28T11:01:15.632Z,14.25
2022-09-28T11:02:19.317Z,14.31
2022-09-28T11:03:59.776Z,14.44
2022-09-28T11:05:03.004Z,14.50
2022-09-28T11:06:06.362Z,14.56
2022-09-28T11:07:42.125Z,14.56
2022-09-28T11:08:45.131Z,14.44
2022-09-28T11:09:48.766Z,14.44
2022-09-28T11:11:24.026Z,14.38
2022-09-28T11:12:27.208Z,14.38
2022-09-28T11:13:30.250Z,14.38
2022-09-28T11:15:05.066Z,14.38
2022-09-28T11:16:08.518Z,14.38
2022-09-28T11:17:12.919Z,14.38
2022-09-28T11:18:47.779Z,14.31
2022-09-28T11:19:50.988Z,14.31
2022-09-28T11:21:01.155Z,14.25
2022-09-28T11:22:40.490Z,14.25
2022-09-28T11:23:45.405Z,14.19
2022-09-28T11:24:53.880Z,14.19
2022-09-28T11:26:29.074Z,14.19
2022-09-28T11:27:32.310Z,14.13
2022-09-28T11:28:35.462Z,14.06
2022-09-28T11:30:10.418Z,14.06
2022-09-28T11:31:13.919Z,14.00
2022-09-28T11:32:17.132Z,14.00
2022-09-28T11:33:52.114Z,14.00
2022-09-28T11:35:11.270Z,14.00
2022-09-28T11:36:14.437Z,14.06
2022-09-28T11:37:49.926Z,14.00
2022-09-28T11:38:53.074Z,14.00
2022-09-28T11:39:56.432Z,14.00
2022-09-28T11:41:31.964Z,14.00
2022-09-28T11:42:35.038Z,14.00
2022-09-28T11:43:38.325Z,14.00
2022-09-28T11:45:19.744Z,13.94
2022-09-28T11:46:23.144Z,13.94
2022-09-28T11:47:26.590Z,13.94
2022-09-28T11:49:01.488Z,13.94
2022-09-28T11:50:05.173Z,13.94
2022-09-28T11:51:15.421Z,13.94
2022-09-28T11:52:50.366Z,13.94
2022-09-28T11:53:53.711Z,13.94
2022-09-28T11:54:56.750Z,13.94
2022-09-28T11:56:31.838Z,13.94
2022-09-28T11:57:34.798Z,13.94
2022-09-28T11:58:37.947Z,13.94
2022-09-28T12:00:11.966Z,13.94
2022-09-28T12:01:18.741Z,13.94
2022-09-28T12:02:22.221Z,13.94
2022-09-28T12:03:59.168Z,14.00
2022-09-28T12:05:02.395Z,14.06
2022-09-28T12:06:12.568Z,14.13
2022-09-28T12:07:47.796Z,14.19
2022-09-28T12:08:50.955Z,14.19
2022-09-28T12:09:53.979Z,14.19
2022-09-28T12:11:31.859Z,14.25
2022-09-28T12:12:34.776Z,14.31
2022-09-28T12:13:37.770Z,14.38
2022-09-28T12:15:12.869Z,14.44
2022-09-28T12:17:41.127Z,14.50
2022-09-28T12:18:44.845Z,14.56
2022-09-28T12:20:20.280Z,14.50
2022-09-28T12:21:24.653Z,14.56
2022-09-28T12:22:27.833Z,14.56
2022-09-28T12:24:03.163Z,14.56
2022-09-28T12:25:06.502Z,14.56
2022-09-28T12:26:09.643Z,14.56
2022-09-28T12:27:50.209Z,14.56
2022-09-28T12:28:53.188Z,14.56
2022-09-28T12:29:56.536Z,14.56
2022-09-28T12:31:32.361Z,14.56
2022-09-28T12:32:35.472Z,14.63
2022-09-28T12:33:38.478Z,14.63
2022-09-28T12:35:13.642Z,14.69
2022-09-28T12:36:16.660Z,14.69
2022-09-28T12:37:19.783Z,14.75
2022-09-28T12:39:18.670Z,14.94
2022-09-28T12:40:54.857Z,15.06
2022-09-28T12:41:58.225Z,15.13
2022-09-28T12:43:33.693Z,15.13
2022-09-28T12:44:36.717Z,15.13
2022-09-28T12:46:09.955Z,15.06
2022-09-28T12:47:47.706Z,14.94
2022-09-28T12:49:21.651Z,14.88
2022-09-28T12:51:46.945Z,14.88
2022-09-28T12:53:22.311Z,14.81
2022-09-28T12:54:25.406Z,14.75
2022-09-28T12:55:28.793Z,14.69
2022-09-28T12:57:07.885Z,14.69
2022-09-28T12:58:11.064Z,14.63
2022-09-28T12:59:14.185Z,14.56
2022-09-28T13:00:12.824Z,14.50
2022-09-28T13:01:16.184Z,14.50
2022-09-28T13:02:19.886Z,14.50
2022-09-28T13:03:55.510Z,14.44
2022-09-28T13:05:04.536Z,14.44
2022-09-28T13:06:07.707Z,14.44
2022-09-28T13:07:42.804Z,14.38
2022-09-28T13:08:46.169Z,14.38
2022-09-28T13:09:49.460Z,14.38
2022-09-28T13:11:24.869Z,14.31
2022-09-28T13:12:28.102Z,14.31
2022-09-28T13:13:31.157Z,14.25
2022-09-28T13:15:06.233Z,14.25
2022-09-28T13:16:09.589Z,14.19
2022-09-28T13:17:12.930Z,14.13
2022-09-28T13:18:48.005Z,14.13
2022-09-28T13:19:50.903Z,14.06
2022-09-28T13:20:53.831Z,14.00
2022-09-28T13:22:28.870Z,14.00
2022-09-28T13:23:36.288Z,13.94
2022-09-28T13:25:12.059Z,13.88
2022-09-28T13:26:47.540Z,13.88
2022-09-28T13:27:50.581Z,13.88
2022-09-28T13:28:53.838Z,13.81
2022-09-28T13:30:32.509Z,13.75
2022-09-28T13:31:38.341Z,13.75
2022-09-28T13:32:43.199Z,13.75
2022-09-28T13:34:18.366Z,13.75
2022-09-28T13:35:21.502Z,13.75
2022-09-28T13:36:24.710Z,13.75
2022-09-28T13:38:05.952Z,13.75
2022-09-28T13:39:09.085Z,13.75
2022-09-28T13:40:12.185Z,13.75
2022-09-28T13:41:47.817Z,13.69
2022-09-28T13:42:50.908Z,13.69
2022-09-28T13:43:59.783Z,13.63
2022-09-28T13:45:35.245Z,13.63
2022-09-28T13:46:38.966Z,13.63
2022-09-28T13:47:42.184Z,13.63
2022-09-28T13:49:17.355Z,13.69
2022-09-28T13:50:20.429Z,13.75
2022-09-28T13:51:23.687Z,13.81
2022-09-28T13:52:58.627Z,13.88
2022-09-28T13:54:01.705Z,13.94
2022-09-28T13:55:05.218Z,14.00
2022-09-28T13:56:40.539Z,14.13
2022-09-28T13:57:43.643Z,14.19
2022-09-28T13:58:46.739Z,14.25
2022-09-28T14:00:12.250Z,14.38
2022-09-28T14:01:15.458Z,14.31
2022-09-28T14:02:19.411Z,14.38
2022-09-28T14:03:55.023Z,14.44
2022-09-28T14:04:58.199Z,14.44
2022-09-28T14:06:01.591Z,14.50
2022-09-28T14:07:42.009Z,14.56
2022-09-28T14:08:49.106Z,14.56
2022-09-28T14:09:52.331Z,14.63
2022-09-28T14:11:27.472Z,14.75
2022-09-28T14:12:30.627Z,14.75
2022-09-28T14:13:33.782Z,14.75
2022-09-28T14:15:08.820Z,14.63
2022-09-28T14:16:12.631Z,14.63
2022-09-28T14:17:15.869Z,14.56
2022-09-28T14:18:50.668Z,14.50
2022-09-28T14:19:54.079Z,14.38
2022-09-28T14:20:57.133Z,14.38
2022-09-28T14:22:32.420Z,14.38
2022-09-28T14:23:35.565Z,14.31
2022-09-28T14:24:45.776Z,14.31
2022-09-28T14:26:21.162Z,14.25
2022-09-28T14:27:24.141Z,14.25
2022-09-28T14:28:27.199Z,14.19
2022-09-28T14:30:02.852Z,14.19
2022-09-28T14:31:06.331Z,14.13
2022-09-28T14:32:09.992Z,14.13
2022-09-28T14:33:45.061Z,14.06
2022-09-28T14:34:48.192Z,14.00
2022-09-28T14:35:54.050Z,14.00
2022-09-28T14:37:28.990Z,13.94
2022-09-28T14:38:32.026Z,13.94
2022-09-28T14:39:35.221Z,13.94
2022-09-28T14:41:10.663Z,13.88
2022-09-28T14:42:13.896Z,13.88
2022-09-28T14:43:17.329Z,13.88
2022-09-28T14:44:52.862Z,13.88
2022-09-28T14:46:03.868Z,13.88
2022-09-28T14:47:07.652Z,13.88
2022-09-28T14:48:42.687Z,13.94
2022-09-28T14:49:45.823Z,13.94
2022-09-28T14:50:55.305Z,13.94
2022-09-28T14:52:30.480Z,14.00
2022-09-28T14:53:33.583Z,14.00
2022-09-28T14:54:36.919Z,14.00
2022-09-28T14:56:11.773Z,14.00
2022-09-28T14:57:19.138Z,14.00
2022-09-28T14:58:22.301Z,14.00
2022-09-28T14:59:57.454Z,14.00
2022-09-28T15:00:11.854Z,14.00
2022-09-28T15:01:14.894Z,13.94
2022-09-28T15:02:17.812Z,13.94
2022-09-28T15:03:58.556Z,13.94
2022-09-28T15:05:03.179Z,13.88
2022-09-28T15:06:07.496Z,13.88
2022-09-28T15:07:42.754Z,13.81
2022-09-28T15:08:45.969Z,13.81
2022-09-28T15:09:49.135Z,13.81
2022-09-28T15:11:24.327Z,13.75
2022-09-28T15:12:27.357Z,13.75
2022-09-28T15:13:30.169Z,13.69
2022-09-28T15:15:05.654Z,13.63
2022-09-28T15:16:09.195Z,13.63
2022-09-28T15:17:12.420Z,13.56
2022-09-28T15:18:52.439Z,13.50
2022-09-28T15:19:55.545Z,13.44
2022-09-28T15:20:58.896Z,13.38
2022-09-28T15:22:33.981Z,13.38
2022-09-28T15:23:37.259Z,13.31
2022-09-28T15:24:40.398Z,13.31
2022-09-28T15:26:20.331Z,13.25
2022-09-28T15:27:23.549Z,13.25
2022-09-28T15:28:26.498Z,13.19
2022-09-28T15:30:01.816Z,13.19
2022-09-28T15:31:04.939Z,13.19
2022-09-28T15:32:08.919Z,13.19
2022-09-28T15:33:44.695Z,13.19
2022-09-28T15:34:48.227Z,13.19
2022-09-28T15:35:51.296Z,13.13
2022-09-28T15:37:26.543Z,13.13
2022-09-28T15:38:32.697Z,13.13
2022-09-28T15:39:35.933Z,13.13
2022-09-28T15:41:11.584Z,13.13
2022-09-28T15:42:14.458Z,13.13
2022-09-28T15:43:17.738Z,13.13
2022-09-28T15:44:52.972Z,13.06
2022-09-28T15:45:56.340Z,13.06
2022-09-28T15:46:59.943Z,13.00
2022-09-28T15:48:35.003Z,13.00
2022-09-28T15:49:39.209Z,13.00
2022-09-28T15:50:42.280Z,13.00
2022-09-28T15:52:17.495Z,13.00
2022-09-28T15:53:20.651Z,13.00
2022-09-28T15:54:24.236Z,13.00
2022-09-28T15:55:59.638Z,12.94
2022-09-28T15:57:02.936Z,12.94
2022-09-28T15:58:05.895Z,12.94
2022-09-28T15:59:40.759Z,12.94
2022-09-28T16:00:12.847Z,12.94
2022-09-28T16:01:16.019Z,12.94
2022-09-28T16:02:19.779Z,12.88
2022-09-28T16:03:55.629Z,12.88
2022-09-28T16:04:58.746Z,12.88
2022-09-28T16:05:42.152Z,12.88
2022-09-28T16:06:45.235Z,12.88
2022-09-28T16:07:51.570Z,12.88
2022-09-28T16:09:30.227Z,12.88
2022-09-28T16:10:38.739Z,12.81
2022-09-28T16:11:41.801Z,12.81
2022-09-28T16:13:16.920Z,12.81
2022-09-28T16:14:19.951Z,12.81